createdAt,value
2018-12-24T00:01:36.266Z,91.00
2018-12-24T00:04:06.331Z,90.90
2018-12-24T00:06:36.264Z,90.90
2018-12-24T00:09:07.382Z,90.80
2018-12-24T00:11:37.387Z,90.80
2018-12-24T00:14:07.221Z,90.80
2018-12-24T00:16:37.067Z,90.80
2018-12-24T00:19:06.916Z,90.60
2018-12-24T00:21:36.881Z,90.60
2018-12-24T00:24:07.086Z,90.80
2018-12-24T00:26:37.210Z,90.90
2018-12-24T00:29:07.036Z,90.80
2018-12-24T00:31:36.885Z,91.00
2018-12-24T00:34:06.757Z,91.10
2018-12-24T00:36:36.634Z,91.10
2018-12-24T00:39:07.828Z,90.90
2018-12-24T00:41:37.622Z,90.90
2018-12-24T00:44:07.545Z,90.70
2018-12-24T00:46:37.414Z,90.70
2018-12-24T00:49:07.227Z,90.90
2018-12-24T00:51:37.271Z,91.00
2018-12-24T00:54:07.207Z,91.30
2018-12-24T00:56:37.192Z,91.30
2018-12-24T00:59:07.064Z,91.20
2018-12-24T01:01:37.290Z,91.20
2018-12-24T01:04:07.169Z,91.30
2018-12-24T01:06:37.088Z,91.20
2018-12-24T01:09:07.753Z,91.30
2018-12-24T01:11:37.825Z,91.20
2018-12-24T01:14:07.727Z,91.30
2018-12-24T01:16:37.961Z,91.40
2018-12-24T01:19:07.708Z,91.30
2018-12-24T01:21:37.774Z,91.30
2018-12-24T01:24:07.560Z,91.40
2018-12-24T01:26:37.553Z,91.50
2018-12-24T01:29:07.397Z,91.40
2018-12-24T01:31:37.758Z,91.50
2018-12-24T01:34:07.561Z,91.40
2018-12-24T01:36:37.417Z,91.50
2018-12-24T01:39:08.273Z,91.50
2018-12-24T01:41:38.178Z,91.40
2018-12-24T01:44:08.163Z,91.50
2018-12-24T01:46:38.047Z,91.50
2018-12-24T01:49:08.009Z,91.50
2018-12-24T01:51:38.271Z,91.60
2018-12-24T01:54:08.100Z,91.60
2018-12-24T01:56:37.933Z,91.70
2018-12-24T01:59:07.870Z,91.80
2018-12-24T02:01:38.041Z,91.80
2018-12-24T02:04:07.908Z,92.00
2018-12-24T02:06:38.027Z,92.00
2018-12-24T02:09:08.325Z,92.20
2018-12-24T02:11:38.207Z,92.20
2018-12-24T02:14:08.035Z,92.10
2018-12-24T02:16:38.055Z,92.10
2018-12-24T02:19:07.879Z,92.10
2018-12-24T02:21:37.734Z,92.20
2018-12-24T02:24:07.509Z,92.20
2018-12-24T02:26:37.433Z,92.60
2018-12-24T02:29:07.400Z,92.30
2018-12-24T02:31:37.169Z,92.30
2018-12-24T02:34:07.658Z,92.20
2018-12-24T02:36:37.491Z,92.10
2018-12-24T02:39:08.321Z,92.20
2018-12-24T02:41:38.235Z,92.40
2018-12-24T02:44:08.287Z,92.30
2018-12-24T02:46:38.124Z,92.40
2018-12-24T02:49:08.119Z,92.50
2018-12-24T02:51:38.347Z,92.60
2018-12-24T02:54:08.377Z,92.80
2018-12-24T02:56:38.140Z,92.60
2018-12-24T02:59:08.013Z,92.70
2018-12-24T03:01:37.829Z,92.70
2018-12-24T03:04:07.603Z,92.80
2018-12-24T03:06:37.698Z,92.90
2018-12-24T03:09:08.145Z,92.90
2018-12-24T03:11:38.076Z,93.00
2018-12-24T03:14:07.877Z,92.90
2018-12-24T03:16:37.647Z,92.90
2018-12-24T03:19:07.496Z,92.80
2018-12-24T03:21:37.411Z,93.00
2018-12-24T03:24:07.291Z,93.10
2018-12-24T03:26:37.118Z,93.00
2018-12-24T03:29:06.907Z,92.90
2018-12-24T03:31:36.712Z,92.90
2018-12-24T03:34:06.696Z,92.80
2018-12-24T03:36:36.500Z,92.90
2018-12-24T03:39:07.918Z,92.90
2018-12-24T03:41:37.688Z,92.80
2018-12-24T03:44:07.679Z,93.10
2018-12-24T03:46:37.359Z,92.70
2018-12-24T03:49:07.182Z,92.60
2018-12-24T03:51:36.946Z,92.60
2018-12-24T03:54:06.832Z,92.50
2018-12-24T03:56:36.668Z,92.60
2018-12-24T03:59:06.450Z,92.70
2018-12-24T04:01:36.607Z,92.70
2018-12-24T04:04:06.388Z,92.70
2018-12-24T04:06:36.092Z,92.70
2018-12-24T04:09:07.593Z,92.70
2018-12-24T04:11:37.359Z,92.80
2018-12-24T04:14:07.318Z,92.90
2018-12-24T04:16:37.013Z,93.10
2018-12-24T04:19:06.796Z,93.00
2018-12-24T04:21:36.642Z,92.80
2018-12-24T04:24:06.498Z,92.90
2018-12-24T04:26:36.292Z,92.90
2018-12-24T04:29:06.028Z,92.40
2018-12-24T04:31:35.863Z,92.70
2018-12-24T04:34:06.296Z,92.60
2018-12-24T04:36:36.181Z,92.50
2018-12-24T04:39:07.392Z,92.50
2018-12-24T04:41:37.196Z,92.50
2018-12-24T04:44:06.940Z,92.40
2018-12-24T04:46:36.685Z,92.50
2018-12-24T04:49:06.429Z,92.30
2018-12-24T04:51:36.426Z,92.10
2018-12-24T04:54:06.272Z,92.20
2018-12-24T04:56:36.173Z,92.30
2018-12-24T04:59:05.944Z,92.30
2018-12-24T05:01:35.787Z,92.30
2018-12-24T05:04:05.582Z,92.50
2018-12-24T05:06:35.686Z,92.60
2018-12-24T05:09:07.441Z,92.60
2018-12-24T05:11:37.218Z,92.60
2018-12-24T05:14:07.151Z,92.50
2018-12-24T05:16:36.942Z,92.50
2018-12-24T05:19:06.725Z,93.00
2018-12-24T05:21:36.982Z,92.50
2018-12-24T05:24:07.113Z,92.40
2018-12-24T05:26:36.835Z,92.60
2018-12-24T05:29:06.613Z,92.60
2018-12-24T05:31:36.518Z,92.60
2018-12-24T05:34:06.486Z,92.40
2018-12-24T05:36:36.263Z,92.20
2018-12-24T05:39:07.666Z,92.20
2018-12-24T05:41:37.563Z,92.40
2018-12-24T05:44:07.471Z,92.20
2018-12-24T05:46:37.299Z,91.90
2018-12-24T05:49:07.021Z,92.00
2018-12-24T05:51:36.893Z,91.90
2018-12-24T05:54:06.731Z,92.20
2018-12-24T05:56:36.455Z,92.20
2018-12-24T05:59:06.343Z,92.20
2018-12-24T06:01:36.113Z,91.80
2018-12-24T06:04:05.938Z,91.80
2018-12-24T06:06:35.798Z,91.80
2018-12-24T06:09:07.778Z,91.70
2018-12-24T06:11:37.539Z,91.80
2018-12-24T06:14:07.319Z,92.00
2018-12-24T06:16:37.353Z,92.00
2018-12-24T06:19:07.105Z,91.80
2018-12-24T06:21:36.894Z,91.90
2018-12-24T06:24:06.934Z,91.80
2018-12-24T06:26:36.646Z,91.90
2018-12-24T06:29:06.523Z,91.60
2018-12-24T06:31:36.305Z,91.60
2018-12-24T06:34:06.288Z,91.10
2018-12-24T06:36:36.043Z,91.10
2018-12-24T06:39:07.975Z,90.60
2018-12-24T06:41:37.678Z,90.50
2018-12-24T06:44:07.516Z,90.60
2018-12-24T06:46:37.436Z,90.70
2018-12-24T06:49:07.267Z,91.00
2018-12-24T06:51:37.236Z,91.00
2018-12-24T06:54:07.079Z,91.00
2018-12-24T06:56:36.962Z,90.90
2018-12-24T06:59:06.882Z,90.90
2018-12-24T07:01:36.669Z,90.80
2018-12-24T07:04:06.712Z,91.10
2018-12-24T07:06:36.441Z,91.10
2018-12-24T07:09:07.958Z,91.20
2018-12-24T07:11:37.788Z,91.30
2018-12-24T07:14:15.252Z,91.20
2018-12-24T07:16:39.398Z,91.10
2018-12-24T07:19:09.130Z,91.20
2018-12-24T07:21:38.938Z,91.30
2018-12-24T07:24:08.901Z,91.20
2018-12-24T07:26:38.746Z,91.20
2018-12-24T07:29:08.631Z,91.10
2018-12-24T07:31:38.606Z,91.10
2018-12-24T07:34:08.420Z,90.90
2018-12-24T07:36:38.486Z,90.60
2018-12-24T07:39:08.644Z,90.60
2018-12-24T07:41:38.608Z,90.60
2018-12-24T07:44:08.397Z,90.10
2018-12-24T07:46:38.262Z,90.60
2018-12-24T07:49:08.296Z,89.80
2018-12-24T07:51:38.118Z,90.00
2018-12-24T07:54:08.233Z,89.80
2018-12-24T07:56:38.106Z,90.10
2018-12-24T07:59:08.046Z,89.80
2018-12-24T08:01:37.942Z,89.40
2018-12-24T08:04:07.986Z,89.70
2018-12-24T08:06:37.876Z,89.70
2018-12-24T08:09:09.550Z,89.10
2018-12-24T08:11:39.369Z,88.10
2018-12-24T08:14:09.282Z,88.70
2018-12-24T08:16:39.319Z,88.10
2018-12-24T08:19:09.128Z,88.70
2018-12-24T08:21:38.980Z,88.00
2018-12-24T08:24:08.845Z,87.60
2018-12-24T08:26:38.647Z,87.80
2018-12-24T08:29:08.463Z,87.80
2018-12-24T08:31:40.147Z,87.30
2018-12-24T08:34:09.975Z,86.20
2018-12-24T08:36:39.784Z,86.20
2018-12-24T08:39:09.679Z,87.00
2018-12-24T08:41:39.703Z,86.60
2018-12-24T08:44:09.778Z,86.30
2018-12-24T08:46:39.985Z,86.40
2018-12-24T08:49:09.927Z,87.60
2018-12-24T08:51:39.820Z,86.00
2018-12-24T08:54:09.786Z,86.60
2018-12-24T08:56:39.712Z,87.00
2018-12-24T08:59:09.491Z,87.10
2018-12-24T09:01:39.315Z,86.90
2018-12-24T09:04:09.146Z,88.00
2018-12-24T09:06:39.277Z,87.80
2018-12-24T09:09:09.172Z,87.80
2018-12-24T09:11:38.963Z,88.00
2018-12-24T09:14:08.878Z,87.70
2018-12-24T09:16:38.725Z,87.10
2018-12-24T09:19:08.542Z,87.30
2018-12-24T09:21:38.428Z,86.90
2018-12-24T09:24:08.482Z,87.00
2018-12-24T09:26:38.560Z,87.50
2018-12-24T09:29:08.480Z,87.60
2018-12-24T09:31:38.637Z,87.50
2018-12-24T09:34:08.520Z,87.60
2018-12-24T09:36:38.838Z,86.70
2018-12-24T09:39:08.935Z,87.20
2018-12-24T09:41:38.895Z,87.40
2018-12-24T09:44:09.030Z,87.10
2018-12-24T09:46:38.882Z,87.80
2018-12-24T09:49:08.844Z,87.50
2018-12-24T09:51:38.883Z,87.00
2018-12-24T09:54:08.978Z,85.70
2018-12-24T09:56:38.804Z,86.10
2018-12-24T09:59:08.734Z,86.00
2018-12-24T10:01:38.608Z,86.00
2018-12-24T10:04:16.281Z,86.40
2018-12-24T10:06:46.066Z,86.90
2018-12-24T10:09:16.561Z,86.90
2018-12-24T10:11:46.427Z,87.20
2018-12-24T10:14:16.493Z,87.50
2018-12-24T10:16:46.310Z,87.00
2018-12-24T10:19:16.288Z,87.30
2018-12-24T10:21:46.268Z,87.00
2018-12-24T10:24:16.083Z,87.00
2018-12-24T10:26:45.969Z,87.00
2018-12-24T10:29:15.795Z,86.90
2018-12-24T10:31:45.719Z,87.40
2018-12-24T10:34:15.570Z,87.80
2018-12-24T10:36:45.647Z,86.70
2018-12-24T10:39:15.873Z,87.30
2018-12-24T10:41:46.095Z,86.40
2018-12-24T10:44:16.028Z,85.90
2018-12-24T10:46:46.085Z,85.80
2018-12-24T10:49:16.172Z,85.80
2018-12-24T10:51:46.008Z,85.70
2018-12-24T10:54:15.942Z,84.70
2018-12-24T10:56:45.878Z,84.90
2018-12-24T10:59:16.188Z,83.80
2018-12-24T11:01:46.174Z,84.10
2018-12-24T11:04:16.131Z,82.40
2018-12-24T11:06:46.208Z,82.90
2018-12-24T11:09:16.242Z,81.40
2018-12-24T11:11:46.165Z,80.50
2018-12-24T11:14:16.097Z,80.00
2018-12-24T11:16:46.131Z,80.90
2018-12-24T11:19:16.496Z,79.10
2018-12-24T11:21:46.371Z,77.80
2018-12-24T11:24:16.352Z,78.00
2018-12-24T11:26:46.254Z,78.20
2018-12-24T11:29:16.322Z,77.20
2018-12-24T11:31:46.508Z,77.00
2018-12-24T11:34:16.338Z,76.20
2018-12-24T11:36:46.249Z,76.90
2018-12-24T11:39:16.089Z,77.80
2018-12-24T11:41:45.923Z,78.50
2018-12-24T11:44:15.787Z,78.50
2018-12-24T11:46:45.610Z,77.70
2018-12-24T11:49:15.634Z,76.70
2018-12-24T11:51:45.468Z,77.90
2018-12-24T11:54:15.553Z,78.50
2018-12-24T11:56:45.438Z,77.60
2018-12-24T11:59:15.290Z,78.20
2018-12-24T12:01:45.142Z,78.80
2018-12-24T12:04:15.052Z,79.30
2018-12-24T12:06:44.868Z,76.50
2018-12-24T12:10:10.276Z,76.70
2018-12-24T12:12:39.844Z,75.60
2018-12-24T12:15:09.272Z,75.00
2018-12-24T12:17:39.008Z,75.60
2018-12-24T12:20:08.853Z,74.80
2018-12-24T12:22:38.507Z,74.50
2018-12-24T12:25:08.060Z,75.20
2018-12-24T12:27:37.620Z,75.00
2018-12-24T12:30:09.134Z,74.80
2018-12-24T12:32:38.711Z,74.80
2018-12-24T12:35:08.154Z,74.80
2018-12-24T12:37:37.949Z,74.70
2018-12-24T12:40:08.158Z,74.40
2018-12-24T12:42:37.884Z,74.20
2018-12-24T12:45:07.657Z,74.40
2018-12-24T12:47:37.160Z,75.80
2018-12-24T12:50:06.701Z,75.60
2018-12-24T12:52:36.432Z,75.70
2018-12-24T12:55:06.422Z,74.70
2018-12-24T12:57:35.856Z,75.50
2018-12-24T13:00:06.316Z,76.50
2018-12-24T13:02:35.997Z,74.50
2018-12-24T13:05:05.627Z,74.80
2018-12-24T13:07:35.222Z,74.40
2018-12-24T13:10:04.864Z,74.40
2018-12-24T13:12:34.285Z,73.50
2018-12-24T13:15:04.341Z,74.10
2018-12-24T13:17:34.046Z,75.10
2018-12-24T13:20:03.909Z,75.30
2018-12-24T13:22:33.525Z,74.80
2018-12-24T13:25:03.324Z,74.60
2018-12-24T13:27:38.931Z,74.00
2018-12-24T13:30:09.007Z,73.90
2018-12-24T13:32:38.446Z,74.60
2018-12-24T13:35:07.889Z,74.90
2018-12-24T13:37:37.456Z,74.90
2018-12-24T13:40:07.423Z,75.90
2018-12-24T13:42:36.944Z,75.70
2018-12-24T13:45:07.740Z,76.40
2018-12-24T13:47:37.663Z,76.90
2018-12-24T13:50:07.179Z,76.40
2018-12-24T13:52:36.826Z,76.90
2018-12-24T13:55:06.459Z,75.50
2018-12-24T13:57:35.887Z,76.30
2018-12-24T14:00:05.644Z,75.00
2018-12-24T14:02:35.063Z,76.10
2018-12-24T14:05:04.903Z,76.90
2018-12-24T14:07:34.371Z,76.80
2018-12-24T14:10:03.818Z,77.50
2018-12-24T14:12:33.361Z,76.30
2018-12-24T14:15:02.968Z,76.70
2018-12-24T14:17:32.535Z,76.60
2018-12-24T14:20:02.096Z,75.70
2018-12-24T14:22:31.624Z,75.00
2018-12-24T14:25:01.327Z,74.60
2018-12-24T14:27:30.835Z,74.80
2018-12-24T14:30:00.323Z,75.60
2018-12-24T14:32:30.107Z,75.60
2018-12-24T14:34:59.688Z,75.90
2018-12-24T14:37:29.261Z,75.50
2018-12-24T14:39:58.898Z,75.20
2018-12-24T14:42:28.482Z,76.00
2018-12-24T14:44:57.904Z,75.90
2018-12-24T14:47:27.500Z,76.40
2018-12-24T14:49:57.522Z,76.40
2018-12-24T14:52:27.068Z,77.10
2018-12-24T14:54:56.828Z,77.00
2018-12-24T14:57:26.489Z,77.50
2018-12-24T14:59:56.197Z,77.90
2018-12-24T15:02:25.980Z,77.60
2018-12-24T15:04:55.534Z,77.90
2018-12-24T15:07:25.083Z,78.10
2018-12-24T15:09:57.744Z,78.70
2018-12-24T15:12:27.385Z,78.80
2018-12-24T15:14:57.433Z,79.50
2018-12-24T15:17:26.966Z,80.50
2018-12-24T15:19:56.466Z,80.60
2018-12-24T15:22:27.230Z,80.80
2018-12-24T15:24:56.740Z,81.10
2018-12-24T15:27:26.284Z,81.30
2018-12-24T15:29:55.738Z,82.00
2018-12-24T15:32:25.302Z,81.60
2018-12-24T15:34:54.909Z,81.40
2018-12-24T15:37:24.410Z,81.30
2018-12-24T15:39:54.036Z,82.00
2018-12-24T15:42:23.582Z,81.90
2018-12-24T15:44:53.216Z,81.20
2018-12-24T15:47:22.729Z,82.10
2018-12-24T15:49:52.146Z,83.30
2018-12-24T15:52:21.570Z,83.40
2018-12-24T15:54:51.139Z,83.40
2018-12-24T15:57:20.555Z,83.80
2018-12-24T15:59:49.936Z,83.90
2018-12-24T16:02:19.491Z,84.30
2018-12-24T16:04:48.948Z,84.80
2018-12-24T16:07:18.567Z,84.60
2018-12-24T16:09:48.089Z,84.80
2018-12-24T16:12:17.681Z,84.70
2018-12-24T16:14:47.505Z,84.50
2018-12-24T16:17:17.011Z,84.40
2018-12-24T16:19:48.176Z,84.90
2018-12-24T16:22:17.887Z,84.90
2018-12-24T16:24:47.377Z,85.40
2018-12-24T16:27:16.940Z,85.40
2018-12-24T16:29:46.504Z,85.00
2018-12-24T16:32:16.066Z,84.30
2018-12-24T16:34:45.601Z,84.40
2018-12-24T16:37:15.246Z,84.30
2018-12-24T16:39:45.049Z,85.30
2018-12-24T16:42:14.750Z,85.50
2018-12-24T16:44:44.325Z,85.80
2018-12-24T16:47:13.850Z,86.30
2018-12-24T16:49:43.598Z,86.40
2018-12-24T16:52:13.058Z,86.60
2018-12-24T16:54:42.495Z,86.40
2018-12-24T16:57:12.135Z,86.10
2018-12-24T16:59:41.789Z,85.90
2018-12-24T17:02:11.185Z,84.90
2018-12-24T17:04:40.570Z,84.80
2018-12-24T17:07:10.436Z,84.40
2018-12-24T17:09:40.064Z,84.80
2018-12-24T17:12:09.366Z,84.80
2018-12-24T17:14:38.789Z,84.50
2018-12-24T17:17:08.481Z,84.40
2018-12-24T17:19:37.954Z,84.60
2018-12-24T17:22:07.356Z,84.60
2018-12-24T17:24:39.986Z,84.70
2018-12-24T17:27:09.478Z,83.20
2018-12-24T17:29:39.217Z,85.00
2018-12-24T17:32:08.616Z,84.80
2018-12-24T17:34:38.498Z,84.80
2018-12-24T17:37:08.020Z,85.40
2018-12-24T17:39:37.630Z,84.70
2018-12-24T17:42:08.125Z,84.30
2018-12-24T17:44:37.655Z,83.80
2018-12-24T17:47:07.199Z,84.30
2018-12-24T17:49:36.777Z,84.60
2018-12-24T17:52:06.329Z,84.90
2018-12-24T17:54:35.771Z,85.70
2018-12-24T17:57:07.244Z,85.30
2018-12-24T17:59:36.794Z,85.00
2018-12-24T18:02:06.428Z,84.90
2018-12-24T18:04:35.889Z,85.50
2018-12-24T18:07:05.402Z,85.70
2018-12-24T18:09:34.844Z,85.00
2018-12-24T18:12:04.477Z,85.60
2018-12-24T18:14:34.104Z,85.40
2018-12-24T18:17:03.681Z,85.00
2018-12-24T18:19:33.227Z,85.40
2018-12-24T18:22:02.998Z,85.50
2018-12-24T18:24:32.556Z,85.60
2018-12-24T18:27:02.049Z,85.90
2018-12-24T18:29:31.607Z,85.80
2018-12-24T18:32:00.997Z,86.00
2018-12-24T18:34:30.431Z,85.80
2018-12-24T18:36:59.822Z,85.60
2018-12-24T18:39:29.421Z,85.90
2018-12-24T18:41:59.059Z,86.00
2018-12-24T18:44:28.534Z,86.10
2018-12-24T18:46:58.287Z,86.50
2018-12-24T18:49:27.952Z,86.90
2018-12-24T18:51:57.441Z,86.90
2018-12-24T18:54:27.013Z,86.90
2018-12-24T18:56:56.450Z,86.90
2018-12-24T18:59:25.867Z,86.90
2018-12-24T19:01:55.544Z,86.50
2018-12-24T19:04:24.963Z,85.80
2018-12-24T19:06:54.419Z,85.70
2018-12-24T19:09:24.022Z,85.40
2018-12-24T19:11:53.604Z,85.00
2018-12-24T19:14:23.074Z,85.30
2018-12-24T19:16:55.552Z,85.70
2018-12-24T19:19:25.297Z,85.30
2018-12-24T19:21:54.694Z,85.10
2018-12-24T19:24:24.087Z,86.10
2018-12-24T19:26:53.581Z,86.50
2018-12-24T19:29:23.297Z,87.00
2018-12-24T19:31:52.726Z,87.10
2018-12-24T19:34:22.413Z,87.60
2018-12-24T19:36:51.959Z,87.20
2018-12-24T19:39:21.546Z,87.70
2018-12-24T19:41:51.075Z,87.90
2018-12-24T19:44:20.801Z,88.30
2018-12-24T19:46:50.397Z,89.10
2018-12-24T19:49:19.797Z,88.50
2018-12-24T19:51:49.553Z,88.40
2018-12-24T19:54:19.001Z,88.40
2018-12-24T19:56:48.492Z,88.50
2018-12-24T19:59:18.041Z,88.70
2018-12-24T20:01:47.450Z,88.70
2018-12-24T20:04:17.211Z,88.50
2018-12-24T20:06:46.731Z,88.60
2018-12-24T20:09:16.369Z,88.60
2018-12-24T20:11:45.866Z,88.80
2018-12-24T20:14:15.341Z,89.00
2018-12-24T20:16:44.734Z,88.70
2018-12-24T20:19:14.256Z,88.60
2018-12-24T20:21:44.050Z,88.40
2018-12-24T20:24:13.545Z,88.70
2018-12-24T20:26:43.002Z,88.60
2018-12-24T20:29:12.526Z,88.60
2018-12-24T20:31:42.018Z,88.90
2018-12-24T20:34:11.927Z,89.00
2018-12-24T20:36:41.355Z,88.60
2018-12-24T20:39:30.141Z,88.20
2018-12-24T20:41:59.823Z,88.30
2018-12-24T20:44:29.408Z,88.70
2018-12-24T20:46:59.243Z,88.90
2018-12-24T20:49:28.732Z,89.00
2018-12-24T20:51:58.305Z,89.30
2018-12-24T20:54:27.852Z,89.60
2018-12-24T20:56:57.519Z,89.50
2018-12-24T20:59:27.203Z,89.40
2018-12-24T21:01:56.698Z,89.60
2018-12-24T21:04:26.176Z,89.50
2018-12-24T21:06:55.600Z,89.40
2018-12-24T21:09:25.147Z,89.10
2018-12-24T21:11:54.733Z,89.10
2018-12-24T21:14:24.285Z,89.50
2018-12-24T21:16:53.745Z,89.50
2018-12-24T21:19:23.281Z,89.60
2018-12-24T21:21:52.686Z,89.60
2018-12-24T21:24:22.131Z,89.60
2018-12-24T21:26:51.641Z,89.30
2018-12-24T21:29:21.073Z,89.20
2018-12-24T21:31:50.596Z,88.90
2018-12-24T21:34:20.254Z,88.60
2018-12-24T21:36:49.890Z,88.80
2018-12-24T21:39:20.625Z,89.00
2018-12-24T21:41:50.113Z,89.30
2018-12-24T21:44:19.689Z,89.20
2018-12-24T21:46:49.203Z,89.00
2018-12-24T21:49:18.537Z,89.30
2018-12-24T21:51:48.103Z,90.00
2018-12-24T21:54:17.514Z,89.40
2018-12-24T21:56:46.940Z,89.10
2018-12-24T21:59:16.795Z,89.30
2018-12-24T22:02:05.244Z,89.60
2018-12-24T22:04:34.689Z,88.70
2018-12-24T22:07:04.248Z,89.50
2018-12-24T22:09:33.953Z,89.40
2018-12-24T22:12:03.549Z,89.60
2018-12-24T22:14:33.301Z,89.70
2018-12-24T22:17:02.844Z,89.80
2018-12-24T22:19:32.477Z,89.70
2018-12-24T22:22:02.183Z,90.00
2018-12-24T22:24:31.720Z,90.00
2018-12-24T22:27:01.406Z,89.50
2018-12-24T22:29:30.826Z,89.20
2018-12-24T22:32:00.355Z,89.30
2018-12-24T22:34:29.945Z,89.60
2018-12-24T22:36:59.550Z,89.80
2018-12-24T22:39:29.356Z,90.00
2018-12-24T22:41:58.818Z,89.90
2018-12-24T22:44:28.389Z,90.00
2018-12-24T22:46:57.778Z,90.00
2018-12-24T22:49:27.359Z,90.00
2018-12-24T22:51:56.818Z,90.00
2018-12-24T22:54:26.325Z,89.80
2018-12-24T22:56:55.992Z,89.50
2018-12-24T22:59:25.780Z,89.70
2018-12-24T23:01:55.314Z,90.00
2018-12-24T23:04:24.742Z,90.00
2018-12-24T23:06:54.446Z,90.00
2018-12-24T23:09:24.257Z,90.10
2018-12-24T23:11:57.090Z,89.80
2018-12-24T23:14:28.907Z,89.80
2018-12-24T23:16:59.312Z,89.80
2018-12-24T23:19:29.180Z,90.00
2018-12-24T23:21:58.686Z,89.80
2018-12-24T23:24:28.198Z,90.00
2018-12-24T23:26:57.827Z,90.00
2018-12-24T23:29:27.504Z,90.00
2018-12-24T23:31:56.996Z,90.00
2018-12-24T23:34:26.478Z,90.00
2018-12-24T23:36:56.038Z,90.00
2018-12-24T23:39:25.488Z,89.90
2018-12-24T23:41:55.140Z,89.60
2018-12-24T23:44:24.834Z,89.80
2018-12-24T23:46:54.265Z,89.80
2018-12-24T23:49:23.722Z,89.40
2018-12-24T23:51:53.133Z,89.40
2018-12-24T23:54:23.002Z,89.70
2018-12-24T23:56:52.394Z,89.70
2018-12-24T23:59:21.902Z,89.60
